This is the latest recevied weather packets stored in our database for station/object WX5KDM. If no packets are shown the sender has not sent any weather packets the latest 1 day(s).
| Time | Temp. | Humidity | Pressure | Rain* | Wind** | Luminosity | Snow |
|---|---|---|---|---|---|---|---|
| 1777993795 | 23.33° C | 59% | 1013.2 hPa | 0 mm | 1.79 m/s, 130° | - | - |
| 1777993491 | 22.78° C | 61% | 1013.2 hPa | 0 mm | 0.89 m/s, 262° | - | - |
| 1777993191 | 23.33° C | 60% | 1013.2 hPa | 0 mm | 1.79 m/s, 212° | - | - |
| 1777992889 | 22.78° C | 61% | 1013 hPa | 0 mm | 1.34 m/s, 265° | - | - |
| 1777992587 | 22.22° C | 65% | 1013.3 hPa | 0 mm | 1.34 m/s, 243° | - | - |
| 1777992285 | 22.22° C | 62% | 1013.3 hPa | 0 mm | 1.34 m/s, 226° | - | - |
| 1777991982 | 21.67° C | 65% | 1013.4 hPa | 0 mm | 0.45 m/s, 194° | - | - |
| 1777991680 | 21.11° C | 65% | 1013.3 hPa | 0 mm | 1.34 m/s, 226° | - | - |
| 1777991376 | 21.67° C | 64% | 1013.4 hPa | 0 mm | 1.79 m/s, 281° | - | - |
| 1777991073 | 21.11° C | 66% | 1013.6 hPa | 0 mm | 1.34 m/s, 220° | - | - |
| 1777990771 | 21.11° C | 67% | 1013.5 hPa | 0 mm | 0.89 m/s, 162° | - | - |
| 1777990468 | 21.11° C | 67% | 1013.6 hPa | 0 mm | 2.24 m/s, 229° | - | - |
| 1777990165 | 20.56° C | 67% | 1013.3 hPa | 0 mm | 1.79 m/s, 288° | - | - |
| 1777989862 | 20.56° C | 68% | 1013.5 hPa | 0 mm | 1.34 m/s, 267° | - | - |
| 1777989558 | 20° C | 71% | 1013.2 hPa | 0 mm | 0.89 m/s, 265° | - | - |
| 1777989255 | 20° C | 70% | 1013.5 hPa | 0 mm | 0.45 m/s, 217° | - | - |
| 1777988951 | 19.44° C | 72% | 1013.4 hPa | 0 mm | 1.34 m/s, 253° | - | - |
| 1777988648 | 19.44° C | 73% | 1013.1 hPa | 0 mm | 0.89 m/s, 258° | - | - |
| 1777988344 | 18.89° C | 74% | 1013.4 hPa | 0 mm | 0 m/s | - | - |
| 1777988041 | 18.89° C | 74% | 1013.4 hPa | 0 mm | 1.34 m/s, 241° | - | - |
| 1777987737 | 18.89° C | 74% | 1013.4 hPa | 0 mm | 0.89 m/s, 274° | - | - |
| 1777987434 | 18.33° C | 73% | 1013.4 hPa | 0 mm | 0.45 m/s, 149° | - | - |
| 1777987131 | 18.33° C | 74% | 1013.4 hPa | 0 mm | 0.89 m/s, 248° | - | - |
| 1777986829 | 18.33° C | 75% | 1013.2 hPa | 0 mm | 0.45 m/s, 137° | - | - |
| 1777986526 | 17.78° C | 76% | 1013.3 hPa | 0 mm | 0.89 m/s, 137° | - | - |
* Rain latest hour (hover to see other rain measurements)
** Current wind speed in m/s (hover to see current wind gust speed)